This is the latest recevied weather packets stored in our database for station/object N5ZKK. If no packets are shown the sender has not sent any weather packets the latest 10 day(s).
| Time | Temp. | Humidity | Pressure | Rain* | Wind** | Luminosity | Snow |
|---|---|---|---|---|---|---|---|
| 1777856720 | 21.67° C | 51% | 1019.6 hPa | 0 mm | - | - | - |
| 1777854327 | 22.78° C | 45% | 1019.5 hPa | 0 mm | - | - | - |
| 1777853125 | 23.89° C | 43% | 1019.6 hPa | 0 mm | - | - | - |
| 1777851917 | 25° C | 42% | 1019.8 hPa | 0 mm | - | - | - |
| 1777850721 | 25.56° C | 39% | 1019.8 hPa | 0 mm | - | - | - |
| 1777847117 | 25.56° C | 38% | 1020.1 hPa | 0 mm | - | - | - |
| 1777846519 | 26.11° C | 38% | 1020.1 hPa | 0 mm | - | - | - |
| 1777845921 | 26.11° C | 38% | 1020.4 hPa | 0 mm | - | - | - |
| 1777842921 | 26.11° C | 36% | 1021.4 hPa | 0 mm | - | - | - |
| 1777838751 | 26.11° C | 37% | 1022.5 hPa | 0 mm | - | - | - |
| 1777833925 | 27.22° C | 37% | 1023.9 hPa | 0 mm | - | - | - |
| 1777833335 | 25° C | 37% | 1024.2 hPa | 0 mm | - | - | - |
| 1777829132 | 23.89° C | 43% | 1025.4 hPa | 0 mm | - | - | - |
| 1777822520 | 21.67° C | 56% | 1026.3 hPa | 0 mm | - | - | - |
| 1777817719 | 18.89° C | 71% | 1026.2 hPa | 0 mm | - | - | - |
| 1777812919 | 9.44° C | 99% | 1025.5 hPa | 0 mm | - | - | - |
| 1777807540 | 6.11° C | 99% | 1025 hPa | 0 mm | - | - | - |
| 1777802141 | 6.11° C | 99% | 1024.6 hPa | 0 mm | - | - | - |
| 1777799729 | 6.67° C | 99% | 1024.8 hPa | 0 mm | - | - | - |
| 1777793130 | 7.78° C | 99% | 1025.1 hPa | 0 mm | - | - | - |
| 1777790721 | 8.33° C | 99% | 1025.5 hPa | 0 mm | - | - | - |
| 1777787752 | 8.89° C | 99% | 1025.3 hPa | 0 mm | - | - | - |
| 1777785317 | 9.44° C | 99% | 1025.2 hPa | 0 mm | - | - | - |
| 1777784127 | 10° C | 99% | 1025.2 hPa | 0 mm | - | - | - |
| 1777779327 | 11.67° C | 93% | 1024.6 hPa | 0 mm | - | - | - |
* Rain latest hour (hover to see other rain measurements)
** Current wind speed in m/s (hover to see current wind gust speed)